sensor_id;sensor_type;location;lat;lon;timestamp;temperature;humidity
24384;DHT22;12504;52.870;8.798;2023-05-10T00:01:04;13.30;99.90
24384;DHT22;12504;52.870;8.798;2023-05-10T00:03:29;13.30;99.90
24384;DHT22;12504;52.870;8.798;2023-05-10T00:05:55;13.20;99.90
24384;DHT22;12504;52.870;8.798;2023-05-10T00:08:21;13.20;99.90
24384;DHT22;12504;52.870;8.798;2023-05-10T00:10:46;13.20;99.90
24384;DHT22;12504;52.870;8.798;2023-05-10T00:13:12;13.10;99.90
24384;DHT22;12504;52.870;8.798;2023-05-10T00:15:38;13.10;99.90
24384;DHT22;12504;52.870;8.798;2023-05-10T00:18:03;13.00;99.90
24384;DHT22;12504;52.870;8.798;2023-05-10T00:20:29;13.00;99.90
24384;DHT22;12504;52.870;8.798;2023-05-10T00:22:55;13.00;99.90
24384;DHT22;12504;52.870;8.798;2023-05-10T00:25:20;13.10;99.90
24384;DHT22;12504;52.870;8.798;2023-05-10T00:27:49;13.10;99.90
24384;DHT22;12504;52.870;8.798;2023-05-10T00:30:15;13.10;99.90
24384;DHT22;12504;52.870;8.798;2023-05-10T00:32:40;13.10;99.90
24384;DHT22;12504;52.870;8.798;2023-05-10T00:35:06;13.10;99.90
24384;DHT22;12504;52.870;8.798;2023-05-10T00:37:32;13.10;99.90
24384;DHT22;12504;52.870;8.798;2023-05-10T00:39:57;13.00;99.90
24384;DHT22;12504;52.870;8.798;2023-05-10T00:42:23;13.00;99.90
24384;DHT22;12504;52.870;8.798;2023-05-10T00:44:51;13.00;99.90
24384;DHT22;12504;52.870;8.798;2023-05-10T00:47:16;12.90;99.90
24384;DHT22;12504;52.870;8.798;2023-05-10T00:49:42;12.80;99.90
24384;DHT22;12504;52.870;8.798;2023-05-10T00:52:08;12.80;99.90
24384;DHT22;12504;52.870;8.798;2023-05-10T00:54:34;12.80;99.90
24384;DHT22;12504;52.870;8.798;2023-05-10T00:57:00;12.70;99.90
24384;DHT22;12504;52.870;8.798;2023-05-10T00:59:25;12.70;99.90
24384;DHT22;12504;52.870;8.798;2023-05-10T01:01:51;12.60;99.90
24384;DHT22;12504;52.870;8.798;2023-05-10T01:04:17;12.60;99.90
24384;DHT22;12504;52.870;8.798;2023-05-10T01:06:43;12.50;99.90
24384;DHT22;12504;52.870;8.798;2023-05-10T01:09:08;12.40;99.90
24384;DHT22;12504;52.870;8.798;2023-05-10T01:11:35;12.40;99.90
24384;DHT22;12504;52.870;8.798;2023-05-10T01:14:01;12.30;99.90
24384;DHT22;12504;52.870;8.798;2023-05-10T01:16:27;12.20;99.90
24384;DHT22;12504;52.870;8.798;2023-05-10T01:18:54;12.10;99.90
24384;DHT22;12504;52.870;8.798;2023-05-10T01:26:18;12.10;99.90
24384;DHT22;12504;52.870;8.798;2023-05-10T01:29:10;12.00;99.90
24384;DHT22;12504;52.870;8.798;2023-05-10T01:34:27;12.00;99.90
24384;DHT22;12504;52.870;8.798;2023-05-10T01:37:07;12.00;99.90
24384;DHT22;12504;52.870;8.798;2023-05-10T01:39:47;11.90;99.90
24384;DHT22;12504;52.870;8.798;2023-05-10T01:42:17;11.90;99.90
24384;DHT22;12504;52.870;8.798;2023-05-10T01:44:47;11.90;99.90
24384;DHT22;12504;52.870;8.798;2023-05-10T01:47:16;11.80;99.90
24384;DHT22;12504;52.870;8.798;2023-05-10T01:49:46;11.80;99.90
24384;DHT22;12504;52.870;8.798;2023-05-10T01:52:14;11.80;99.90
24384;DHT22;12504;52.870;8.798;2023-05-10T01:54:43;11.70;99.90
24384;DHT22;12504;52.870;8.798;2023-05-10T01:57:09;11.70;99.90
24384;DHT22;12504;52.870;8.798;2023-05-10T01:59:37;11.70;99.90
24384;DHT22;12504;52.870;8.798;2023-05-10T02:02:07;11.60;99.90
24384;DHT22;12504;52.870;8.798;2023-05-10T02:04:40;11.60;99.90
24384;DHT22;12504;52.870;8.798;2023-05-10T02:07:06;11.60;99.90
24384;DHT22;12504;52.870;8.798;2023-05-10T02:09:32;11.60;99.90
24384;DHT22;12504;52.870;8.798;2023-05-10T02:11:59;11.60;99.90
24384;DHT22;12504;52.870;8.798;2023-05-10T02:14:26;11.70;99.90
24384;DHT22;12504;52.870;8.798;2023-05-10T02:16:52;11.60;99.90
24384;DHT22;12504;52.870;8.798;2023-05-10T02:19:19;11.60;99.90
24384;DHT22;12504;52.870;8.798;2023-05-10T02:21:45;11.60;99.90
24384;DHT22;12504;52.870;8.798;2023-05-10T02:24:11;11.60;99.90
24384;DHT22;12504;52.870;8.798;2023-05-10T02:26:38;11.50;99.90
24384;DHT22;12504;52.870;8.798;2023-05-10T02:29:03;11.60;99.90
24384;DHT22;12504;52.870;8.798;2023-05-10T02:31:33;11.50;99.90
24384;DHT22;12504;52.870;8.798;2023-05-10T02:34:00;11.50;99.90
24384;DHT22;12504;52.870;8.798;2023-05-10T02:36:27;11.50;99.90
24384;DHT22;12504;52.870;8.798;2023-05-10T02:38:53;11.40;99.90
24384;DHT22;12504;52.870;8.798;2023-05-10T02:41:19;11.40;99.90
24384;DHT22;12504;52.870;8.798;2023-05-10T02:43:47;11.40;99.90
24384;DHT22;12504;52.870;8.798;2023-05-10T02:46:14;11.40;99.90
24384;DHT22;12504;52.870;8.798;2023-05-10T02:48:40;11.30;99.90
24384;DHT22;12504;52.870;8.798;2023-05-10T02:51:06;11.30;99.90
24384;DHT22;12504;52.870;8.798;2023-05-10T02:53:33;11.30;99.90
24384;DHT22;12504;52.870;8.798;2023-05-10T02:56:00;11.30;99.90
24384;DHT22;12504;52.870;8.798;2023-05-10T02:58:27;11.20;99.90
24384;DHT22;12504;52.870;8.798;2023-05-10T03:00:52;11.10;99.90
24384;DHT22;12504;52.870;8.798;2023-05-10T03:03:19;11.10;99.90
24384;DHT22;12504;52.870;8.798;2023-05-10T03:05:47;11.10;99.90
24384;DHT22;12504;52.870;8.798;2023-05-10T03:08:12;11.00;99.90
24384;DHT22;12504;52.870;8.798;2023-05-10T03:10:41;11.00;99.90
24384;DHT22;12504;52.870;8.798;2023-05-10T03:13:16;11.00;99.90
24384;DHT22;12504;52.870;8.798;2023-05-10T03:15:47;11.00;99.90
24384;DHT22;12504;52.870;8.798;2023-05-10T03:20:43;11.00;99.90
24384;DHT22;12504;52.870;8.798;2023-05-10T03:25:43;11.00;99.90
24384;DHT22;12504;52.870;8.798;2023-05-10T03:28:10;11.00;99.90
24384;DHT22;12504;52.870;8.798;2023-05-10T03:30:37;11.00;99.90
24384;DHT22;12504;52.870;8.798;2023-05-10T03:33:06;10.90;99.90
24384;DHT22;12504;52.870;8.798;2023-05-10T03:35:34;10.90;99.90
24384;DHT22;12504;52.870;8.798;2023-05-10T03:37:59;10.90;99.90
24384;DHT22;12504;52.870;8.798;2023-05-10T03:40:25;10.90;99.90
24384;DHT22;12504;52.870;8.798;2023-05-10T03:42:51;10.90;99.90
24384;DHT22;12504;52.870;8.798;2023-05-10T03:45:17;10.90;99.90
24384;DHT22;12504;52.870;8.798;2023-05-10T03:47:42;10.90;99.90
24384;DHT22;12504;52.870;8.798;2023-05-10T03:50:09;10.90;99.90
24384;DHT22;12504;52.870;8.798;2023-05-10T03:52:35;10.90;99.90
24384;DHT22;12504;52.870;8.798;2023-05-10T03:55:01;10.90;99.90
24384;DHT22;12504;52.870;8.798;2023-05-10T03:57:29;10.90;99.90
24384;DHT22;12504;52.870;8.798;2023-05-10T03:59:54;10.80;99.90
24384;DHT22;12504;52.870;8.798;2023-05-10T04:02:20;10.80;99.90
24384;DHT22;12504;52.870;8.798;2023-05-10T04:04:46;10.80;99.90
24384;DHT22;12504;52.870;8.798;2023-05-10T04:07:11;10.80;99.90
24384;DHT22;12504;52.870;8.798;2023-05-10T04:09:37;10.70;99.90
24384;DHT22;12504;52.870;8.798;2023-05-10T04:12:02;10.80;99.90
24384;DHT22;12504;52.870;8.798;2023-05-10T04:14:28;10.70;99.90
24384;DHT22;12504;52.870;8.798;2023-05-10T04:16:54;10.70;99.90
24384;DHT22;12504;52.870;8.798;2023-05-10T04:19:20;10.70;99.90
24384;DHT22;12504;52.870;8.798;2023-05-10T04:21:46;10.80;99.90
24384;DHT22;12504;52.870;8.798;2023-05-10T04:24:11;10.80;99.90
24384;DHT22;12504;52.870;8.798;2023-05-10T04:26:37;10.80;99.90
24384;DHT22;12504;52.870;8.798;2023-05-10T04:29:02;10.80;99.90
24384;DHT22;12504;52.870;8.798;2023-05-10T04:31:28;10.80;99.90
24384;DHT22;12504;52.870;8.798;2023-05-10T04:33:53;10.90;99.90
24384;DHT22;12504;52.870;8.798;2023-05-10T04:36:19;10.90;99.90
24384;DHT22;12504;52.870;8.798;2023-05-10T04:38:44;10.90;99.90
24384;DHT22;12504;52.870;8.798;2023-05-10T04:41:10;10.90;99.90
24384;DHT22;12504;52.870;8.798;2023-05-10T04:43:36;10.80;99.90
24384;DHT22;12504;52.870;8.798;2023-05-10T04:46:02;10.90;99.90
24384;DHT22;12504;52.870;8.798;2023-05-10T04:48:27;10.90;99.90
24384;DHT22;12504;52.870;8.798;2023-05-10T04:50:53;10.90;99.90
24384;DHT22;12504;52.870;8.798;2023-05-10T04:53:19;10.90;99.90
24384;DHT22;12504;52.870;8.798;2023-05-10T04:55:44;10.90;99.90
24384;DHT22;12504;52.870;8.798;2023-05-10T04:58:10;10.80;99.90
24384;DHT22;12504;52.870;8.798;2023-05-10T05:00:36;10.80;99.90
24384;DHT22;12504;52.870;8.798;2023-05-10T05:03:01;10.70;99.90
24384;DHT22;12504;52.870;8.798;2023-05-10T05:05:27;10.60;99.90
24384;DHT22;12504;52.870;8.798;2023-05-10T05:07:53;10.60;99.90
24384;DHT22;12504;52.870;8.798;2023-05-10T05:10:18;10.60;99.90
24384;DHT22;12504;52.870;8.798;2023-05-10T05:12:44;10.60;99.90
24384;DHT22;12504;52.870;8.798;2023-05-10T05:15:09;10.60;99.90
24384;DHT22;12504;52.870;8.798;2023-05-10T05:17:36;10.60;99.90
24384;DHT22;12504;52.870;8.798;2023-05-10T05:20:01;10.70;99.90
24384;DHT22;12504;52.870;8.798;2023-05-10T05:22:27;10.70;99.90
24384;DHT22;12504;52.870;8.798;2023-05-10T05:24:54;10.90;99.90
24384;DHT22;12504;52.870;8.798;2023-05-10T05:27:19;11.00;99.90
24384;DHT22;12504;52.870;8.798;2023-05-10T05:29:50;11.00;99.90
24384;DHT22;12504;52.870;8.798;2023-05-10T05:32:16;11.10;99.90
24384;DHT22;12504;52.870;8.798;2023-05-10T05:34:41;11.10;99.90
24384;DHT22;12504;52.870;8.798;2023-05-10T05:37:07;11.20;99.90
24384;DHT22;12504;52.870;8.798;2023-05-10T05:39:33;11.20;99.90
24384;DHT22;12504;52.870;8.798;2023-05-10T05:41:58;11.20;99.90
24384;DHT22;12504;52.870;8.798;2023-05-10T05:44:24;11.20;99.90
24384;DHT22;12504;52.870;8.798;2023-05-10T05:46:49;11.20;99.90
24384;DHT22;12504;52.870;8.798;2023-05-10T05:49:15;11.20;99.90
24384;DHT22;12504;52.870;8.798;2023-05-10T05:51:40;11.10;99.90
24384;DHT22;12504;52.870;8.798;2023-05-10T05:54:06;11.20;99.90
24384;DHT22;12504;52.870;8.798;2023-05-10T05:56:32;11.20;99.90
24384;DHT22;12504;52.870;8.798;2023-05-10T05:58:57;11.20;99.90
24384;DHT22;12504;52.870;8.798;2023-05-10T06:01:23;11.30;99.90
24384;DHT22;12504;52.870;8.798;2023-05-10T06:03:48;11.30;99.90
24384;DHT22;12504;52.870;8.798;2023-05-10T06:06:14;11.30;99.90
24384;DHT22;12504;52.870;8.798;2023-05-10T06:08:40;11.40;99.90
24384;DHT22;12504;52.870;8.798;2023-05-10T06:11:06;11.40;99.90
24384;DHT22;12504;52.870;8.798;2023-05-10T06:13:32;11.40;99.90
24384;DHT22;12504;52.870;8.798;2023-05-10T06:15:58;11.40;99.90
24384;DHT22;12504;52.870;8.798;2023-05-10T06:18:24;11.40;99.90
24384;DHT22;12504;52.870;8.798;2023-05-10T06:20:49;11.50;99.90
24384;DHT22;12504;52.870;8.798;2023-05-10T06:23:15;11.50;99.90
24384;DHT22;12504;52.870;8.798;2023-05-10T06:25:41;11.60;99.90
24384;DHT22;12504;52.870;8.798;2023-05-10T06:28:07;11.60;99.90
24384;DHT22;12504;52.870;8.798;2023-05-10T06:30:32;11.70;99.90
24384;DHT22;12504;52.870;8.798;2023-05-10T06:32:58;11.70;99.90
24384;DHT22;12504;52.870;8.798;2023-05-10T06:35:24;11.80;99.90
24384;DHT22;12504;52.870;8.798;2023-05-10T06:37:49;11.90;99.90
24384;DHT22;12504;52.870;8.798;2023-05-10T06:40:15;11.90;99.90
24384;DHT22;12504;52.870;8.798;2023-05-10T06:42:41;12.00;99.90
24384;DHT22;12504;52.870;8.798;2023-05-10T06:45:07;12.10;99.90
24384;DHT22;12504;52.870;8.798;2023-05-10T06:47:33;12.30;99.90
24384;DHT22;12504;52.870;8.798;2023-05-10T06:49:59;12.40;99.90
24384;DHT22;12504;52.870;8.798;2023-05-10T06:52:25;12.50;99.90
24384;DHT22;12504;52.870;8.798;2023-05-10T06:54:50;12.70;99.90
24384;DHT22;12504;52.870;8.798;2023-05-10T06:57:16;12.70;99.90
24384;DHT22;12504;52.870;8.798;2023-05-10T06:59:41;12.90;99.90
24384;DHT22;12504;52.870;8.798;2023-05-10T07:02:07;12.90;99.90
24384;DHT22;12504;52.870;8.798;2023-05-10T07:04:32;13.00;99.90
24384;DHT22;12504;52.870;8.798;2023-05-10T07:06:59;13.10;99.90
24384;DHT22;12504;52.870;8.798;2023-05-10T07:09:24;13.10;99.90
24384;DHT22;12504;52.870;8.798;2023-05-10T07:11:50;13.20;99.90
24384;DHT22;12504;52.870;8.798;2023-05-10T07:14:16;13.20;99.90
24384;DHT22;12504;52.870;8.798;2023-05-10T07:16:41;13.20;99.90
24384;DHT22;12504;52.870;8.798;2023-05-10T07:19:07;13.10;99.90
24384;DHT22;12504;52.870;8.798;2023-05-10T07:21:32;13.10;99.90
24384;DHT22;12504;52.870;8.798;2023-05-10T07:23:58;13.00;99.90
24384;DHT22;12504;52.870;8.798;2023-05-10T07:26:25;13.00;99.90
24384;DHT22;12504;52.870;8.798;2023-05-10T07:28:50;13.00;99.90
24384;DHT22;12504;52.870;8.798;2023-05-10T07:31:16;13.10;99.90
24384;DHT22;12504;52.870;8.798;2023-05-10T07:33:41;13.10;99.90
24384;DHT22;12504;52.870;8.798;2023-05-10T07:36:07;13.10;99.90
24384;DHT22;12504;52.870;8.798;2023-05-10T07:38:33;13.20;99.90
24384;DHT22;12504;52.870;8.798;2023-05-10T07:40:59;13.20;99.90
24384;DHT22;12504;52.870;8.798;2023-05-10T07:43:24;13.40;99.90
24384;DHT22;12504;52.870;8.798;2023-05-10T07:45:50;13.50;99.90
24384;DHT22;12504;52.870;8.798;2023-05-10T07:48:15;13.60;99.90
24384;DHT22;12504;52.870;8.798;2023-05-10T07:50:41;13.60;99.90
24384;DHT22;12504;52.870;8.798;2023-05-10T07:53:07;13.70;99.90
24384;DHT22;12504;52.870;8.798;2023-05-10T07:55:32;13.70;99.90
24384;DHT22;12504;52.870;8.798;2023-05-10T07:57:58;13.70;99.90
24384;DHT22;12504;52.870;8.798;2023-05-10T08:00:26;13.80;99.90
24384;DHT22;12504;52.870;8.798;2023-05-10T08:02:52;13.90;99.90
24384;DHT22;12504;52.870;8.798;2023-05-10T08:05:18;14.00;99.90
24384;DHT22;12504;52.870;8.798;2023-05-10T08:07:43;14.10;99.90
24384;DHT22;12504;52.870;8.798;2023-05-10T08:10:09;14.20;99.90
24384;DHT22;12504;52.870;8.798;2023-05-10T08:12:36;14.20;99.90
24384;DHT22;12504;52.870;8.798;2023-05-10T08:15:02;14.20;99.90
24384;DHT22;12504;52.870;8.798;2023-05-10T08:17:28;14.20;99.90
24384;DHT22;12504;52.870;8.798;2023-05-10T08:19:54;14.20;99.90
24384;DHT22;12504;52.870;8.798;2023-05-10T08:22:19;14.20;99.90
24384;DHT22;12504;52.870;8.798;2023-05-10T08:24:45;14.20;99.90
24384;DHT22;12504;52.870;8.798;2023-05-10T08:27:11;14.20;99.90
24384;DHT22;12504;52.870;8.798;2023-05-10T08:29:37;14.30;99.90
24384;DHT22;12504;52.870;8.798;2023-05-10T08:32:02;14.40;99.90
24384;DHT22;12504;52.870;8.798;2023-05-10T08:34:28;14.40;99.90
24384;DHT22;12504;52.870;8.798;2023-05-10T08:36:54;14.60;99.90
24384;DHT22;12504;52.870;8.798;2023-05-10T08:39:19;14.70;99.90
24384;DHT22;12504;52.870;8.798;2023-05-10T08:41:45;14.80;99.90
24384;DHT22;12504;52.870;8.798;2023-05-10T08:44:12;14.70;99.90
24384;DHT22;12504;52.870;8.798;2023-05-10T08:46:38;14.60;99.90
24384;DHT22;12504;52.870;8.798;2023-05-10T08:49:09;14.60;99.90
24384;DHT22;12504;52.870;8.798;2023-05-10T08:51:36;14.80;99.90
24384;DHT22;12504;52.870;8.798;2023-05-10T08:54:05;14.90;99.90
24384;DHT22;12504;52.870;8.798;2023-05-10T08:56:31;15.00;99.90
24384;DHT22;12504;52.870;8.798;2023-05-10T08:58:57;15.00;99.90
24384;DHT22;12504;52.870;8.798;2023-05-10T09:01:23;15.20;99.90
24384;DHT22;12504;52.870;8.798;2023-05-10T09:03:49;15.30;99.90
24384;DHT22;12504;52.870;8.798;2023-05-10T09:06:15;15.30;99.90
24384;DHT22;12504;52.870;8.798;2023-05-10T09:08:41;15.30;99.90
24384;DHT22;12504;52.870;8.798;2023-05-10T09:11:08;15.40;99.90
24384;DHT22;12504;52.870;8.798;2023-05-10T09:13:34;15.30;99.90
24384;DHT22;12504;52.870;8.798;2023-05-10T09:16:00;15.20;99.90
24384;DHT22;12504;52.870;8.798;2023-05-10T09:18:26;15.20;99.90
24384;DHT22;12504;52.870;8.798;2023-05-10T09:20:51;15.30;99.90
24384;DHT22;12504;52.870;8.798;2023-05-10T09:23:17;15.40;99.90
24384;DHT22;12504;52.870;8.798;2023-05-10T09:25:43;15.40;99.90
24384;DHT22;12504;52.870;8.798;2023-05-10T09:28:08;15.60;99.90
24384;DHT22;12504;52.870;8.798;2023-05-10T09:30:35;15.60;99.90
24384;DHT22;12504;52.870;8.798;2023-05-10T09:33:00;15.70;99.90
24384;DHT22;12504;52.870;8.798;2023-05-10T09:35:27;15.70;99.90
24384;DHT22;12504;52.870;8.798;2023-05-10T09:37:53;15.90;99.90
24384;DHT22;12504;52.870;8.798;2023-05-10T09:40:21;16.10;99.90
24384;DHT22;12504;52.870;8.798;2023-05-10T09:42:54;16.30;99.90
24384;DHT22;12504;52.870;8.798;2023-05-10T09:45:20;16.60;99.90
24384;DHT22;12504;52.870;8.798;2023-05-10T09:47:46;16.90;99.90
24384;DHT22;12504;52.870;8.798;2023-05-10T09:50:12;17.10;99.90
24384;DHT22;12504;52.870;8.798;2023-05-10T09:55:22;17.70;99.90
24384;DHT22;12504;52.870;8.798;2023-05-10T09:57:48;17.60;99.90
24384;DHT22;12504;52.870;8.798;2023-05-10T10:00:20;17.40;99.90
24384;DHT22;12504;52.870;8.798;2023-05-10T10:02:47;17.40;99.90
24384;DHT22;12504;52.870;8.798;2023-05-10T10:05:13;17.50;99.90
24384;DHT22;12504;52.870;8.798;2023-05-10T10:07:38;17.30;99.90
24384;DHT22;12504;52.870;8.798;2023-05-10T10:10:04;17.00;99.90
24384;DHT22;12504;52.870;8.798;2023-05-10T10:12:30;16.70;99.90
24384;DHT22;12504;52.870;8.798;2023-05-10T10:14:56;16.30;99.90
24384;DHT22;12504;52.870;8.798;2023-05-10T10:17:22;16.00;99.90
24384;DHT22;12504;52.870;8.798;2023-05-10T10:19:49;15.90;99.90
24384;DHT22;12504;52.870;8.798;2023-05-10T10:22:15;16.00;99.90
24384;DHT22;12504;52.870;8.798;2023-05-10T10:24:40;16.00;99.90
24384;DHT22;12504;52.870;8.798;2023-05-10T10:32:22;16.20;99.90
24384;DHT22;12504;52.870;8.798;2023-05-10T10:34:50;16.30;99.90
24384;DHT22;12504;52.870;8.798;2023-05-10T10:37:16;16.40;99.90
24384;DHT22;12504;52.870;8.798;2023-05-10T10:39:42;16.30;99.90
24384;DHT22;12504;52.870;8.798;2023-05-10T10:42:08;16.20;99.90
24384;DHT22;12504;52.870;8.798;2023-05-10T10:44:34;16.10;99.90
24384;DHT22;12504;52.870;8.798;2023-05-10T10:50:21;15.80;99.90
24384;DHT22;12504;52.870;8.798;2023-05-10T10:55:14;15.90;99.90
24384;DHT22;12504;52.870;8.798;2023-05-10T11:05:23;17.50;99.90
24384;DHT22;12504;52.870;8.798;2023-05-10T11:07:55;17.40;99.90
24384;DHT22;12504;52.870;8.798;2023-05-10T11:10:24;17.40;99.90
24384;DHT22;12504;52.870;8.798;2023-05-10T11:15:19;17.40;99.90
24384;DHT22;12504;52.870;8.798;2023-05-10T11:17:45;17.70;99.90
24384;DHT22;12504;52.870;8.798;2023-05-10T11:20:17;17.90;99.90
24384;DHT22;12504;52.870;8.798;2023-05-10T11:22:51;17.80;99.90
24384;DHT22;12504;52.870;8.798;2023-05-10T11:25:17;17.40;99.90
24384;DHT22;12504;52.870;8.798;2023-05-10T11:27:43;17.20;99.90
24384;DHT22;12504;52.870;8.798;2023-05-10T11:30:09;16.80;99.90
24384;DHT22;12504;52.870;8.798;2023-05-10T11:32:39;16.30;99.90
24384;DHT22;12504;52.870;8.798;2023-05-10T11:35:08;16.10;99.90
24384;DHT22;12504;52.870;8.798;2023-05-10T11:37:34;16.20;99.90
24384;DHT22;12504;52.870;8.798;2023-05-10T11:40:00;16.70;99.90
24384;DHT22;12504;52.870;8.798;2023-05-10T11:42:26;17.40;99.90
24384;DHT22;12504;52.870;8.798;2023-05-10T11:44:52;18.00;99.90
24384;DHT22;12504;52.870;8.798;2023-05-10T11:47:18;18.20;99.90
24384;DHT22;12504;52.870;8.798;2023-05-10T11:49:44;18.40;99.90
24384;DHT22;12504;52.870;8.798;2023-05-10T11:52:10;18.80;99.90
24384;DHT22;12504;52.870;8.798;2023-05-10T11:54:46;18.80;99.90
24384;DHT22;12504;52.870;8.798;2023-05-10T11:57:15;18.50;99.90
24384;DHT22;12504;52.870;8.798;2023-05-10T11:59:41;18.10;99.90
24384;DHT22;12504;52.870;8.798;2023-05-10T12:02:07;17.80;99.90
24384;DHT22;12504;52.870;8.798;2023-05-10T12:04:32;17.60;99.90
24384;DHT22;12504;52.870;8.798;2023-05-10T12:06:58;17.30;99.90
24384;DHT22;12504;52.870;8.798;2023-05-10T12:09:24;16.90;99.90
24384;DHT22;12504;52.870;8.798;2023-05-10T12:11:50;16.80;99.90
24384;DHT22;12504;52.870;8.798;2023-05-10T12:14:21;16.50;99.90
24384;DHT22;12504;52.870;8.798;2023-05-10T12:16:47;16.20;99.90
24384;DHT22;12504;52.870;8.798;2023-05-10T12:19:13;15.90;99.90
24384;DHT22;12504;52.870;8.798;2023-05-10T12:21:43;15.80;99.90
24384;DHT22;12504;52.870;8.798;2023-05-10T12:24:09;15.80;99.90
24384;DHT22;12504;52.870;8.798;2023-05-10T12:26:36;15.90;99.90
24384;DHT22;12504;52.870;8.798;2023-05-10T12:29:15;15.80;99.90
24384;DHT22;12504;52.870;8.798;2023-05-10T12:31:51;15.80;99.90
24384;DHT22;12504;52.870;8.798;2023-05-10T12:34:26;16.00;99.90
24384;DHT22;12504;52.870;8.798;2023-05-10T12:36:55;16.10;99.90
24384;DHT22;12504;52.870;8.798;2023-05-10T12:39:21;16.10;99.90
24384;DHT22;12504;52.870;8.798;2023-05-10T12:41:47;16.00;99.90
24384;DHT22;12504;52.870;8.798;2023-05-10T12:44:14;15.70;99.90
24384;DHT22;12504;52.870;8.798;2023-05-10T12:46:40;15.40;99.90
24384;DHT22;12504;52.870;8.798;2023-05-10T12:49:05;15.10;99.90
24384;DHT22;12504;52.870;8.798;2023-05-10T12:51:31;14.70;99.90
24384;DHT22;12504;52.870;8.798;2023-05-10T12:53:57;14.40;99.90
24384;DHT22;12504;52.870;8.798;2023-05-10T12:56:22;14.40;99.90
24384;DHT22;12504;52.870;8.798;2023-05-10T12:58:48;14.50;99.90
24384;DHT22;12504;52.870;8.798;2023-05-10T13:01:14;14.80;99.90
24384;DHT22;12504;52.870;8.798;2023-05-10T13:03:40;15.00;99.90
24384;DHT22;12504;52.870;8.798;2023-05-10T13:06:05;15.10;99.90
24384;DHT22;12504;52.870;8.798;2023-05-10T13:08:31;15.00;99.90
24384;DHT22;12504;52.870;8.798;2023-05-10T13:10:59;14.90;99.90
24384;DHT22;12504;52.870;8.798;2023-05-10T13:13:24;14.80;99.90
24384;DHT22;12504;52.870;8.798;2023-05-10T13:15:50;14.60;99.90
24384;DHT22;12504;52.870;8.798;2023-05-10T13:18:15;14.50;99.90
24384;DHT22;12504;52.870;8.798;2023-05-10T13:20:41;14.50;99.90
24384;DHT22;12504;52.870;8.798;2023-05-10T13:23:08;14.40;99.90
24384;DHT22;12504;52.870;8.798;2023-05-10T13:25:34;14.30;99.90
24384;DHT22;12504;52.870;8.798;2023-05-10T13:28:00;14.40;99.90
24384;DHT22;12504;52.870;8.798;2023-05-10T13:30:25;14.40;99.90
24384;DHT22;12504;52.870;8.798;2023-05-10T13:32:51;14.40;99.90
24384;DHT22;12504;52.870;8.798;2023-05-10T13:35:16;14.50;99.90
24384;DHT22;12504;52.870;8.798;2023-05-10T13:37:42;14.60;99.90
24384;DHT22;12504;52.870;8.798;2023-05-10T13:40:08;14.80;99.90
24384;DHT22;12504;52.870;8.798;2023-05-10T13:42:33;15.00;99.90
24384;DHT22;12504;52.870;8.798;2023-05-10T13:44:59;15.20;99.90
24384;DHT22;12504;52.870;8.798;2023-05-10T13:47:26;15.50;99.90
24384;DHT22;12504;52.870;8.798;2023-05-10T13:49:51;15.70;99.90
24384;DHT22;12504;52.870;8.798;2023-05-10T13:52:17;15.80;99.90
24384;DHT22;12504;52.870;8.798;2023-05-10T13:54:43;15.80;99.90
24384;DHT22;12504;52.870;8.798;2023-05-10T13:57:09;16.00;99.90
24384;DHT22;12504;52.870;8.798;2023-05-10T13:59:37;16.60;99.90
24384;DHT22;12504;52.870;8.798;2023-05-10T14:02:02;17.50;99.90
24384;DHT22;12504;52.870;8.798;2023-05-10T14:04:29;18.00;99.90
24384;DHT22;12504;52.870;8.798;2023-05-10T14:06:55;18.30;99.90
24384;DHT22;12504;52.870;8.798;2023-05-10T14:09:21;17.90;99.90
24384;DHT22;12504;52.870;8.798;2023-05-10T14:11:46;17.70;99.90
24384;DHT22;12504;52.870;8.798;2023-05-10T14:14:12;17.50;99.90
24384;DHT22;12504;52.870;8.798;2023-05-10T14:16:42;17.00;99.90
24384;DHT22;12504;52.870;8.798;2023-05-10T14:19:08;16.70;99.90
24384;DHT22;12504;52.870;8.798;2023-05-10T14:21:33;16.40;99.90
24384;DHT22;12504;52.870;8.798;2023-05-10T14:23:59;16.00;99.90
24384;DHT22;12504;52.870;8.798;2023-05-10T14:26:25;15.60;99.90
24384;DHT22;12504;52.870;8.798;2023-05-10T14:28:51;15.30;99.90
24384;DHT22;12504;52.870;8.798;2023-05-10T14:31:17;15.30;99.90
24384;DHT22;12504;52.870;8.798;2023-05-10T14:33:46;15.50;99.90
24384;DHT22;12504;52.870;8.798;2023-05-10T14:36:12;15.90;99.90
24384;DHT22;12504;52.870;8.798;2023-05-10T14:38:37;16.60;99.90
24384;DHT22;12504;52.870;8.798;2023-05-10T14:41:03;17.40;99.90
24384;DHT22;12504;52.870;8.798;2023-05-10T14:43:29;17.70;99.90
24384;DHT22;12504;52.870;8.798;2023-05-10T14:45:55;17.80;99.90
24384;DHT22;12504;52.870;8.798;2023-05-10T14:48:21;17.50;99.90
24384;DHT22;12504;52.870;8.798;2023-05-10T14:50:47;17.40;99.90
24384;DHT22;12504;52.870;8.798;2023-05-10T14:53:12;17.20;99.90
24384;DHT22;12504;52.870;8.798;2023-05-10T14:55:38;17.20;99.90
24384;DHT22;12504;52.870;8.798;2023-05-10T14:58:04;17.10;99.90
24384;DHT22;12504;52.870;8.798;2023-05-10T15:00:29;17.10;99.90
24384;DHT22;12504;52.870;8.798;2023-05-10T15:02:55;17.50;99.90
24384;DHT22;12504;52.870;8.798;2023-05-10T15:05:21;18.00;99.90
24384;DHT22;12504;52.870;8.798;2023-05-10T15:07:47;18.40;99.90
24384;DHT22;12504;52.870;8.798;2023-05-10T15:10:12;18.50;99.90
24384;DHT22;12504;52.870;8.798;2023-05-10T15:12:39;18.30;99.90
24384;DHT22;12504;52.870;8.798;2023-05-10T15:15:05;18.30;99.90
24384;DHT22;12504;52.870;8.798;2023-05-10T15:17:31;18.10;99.90
24384;DHT22;12504;52.870;8.798;2023-05-10T15:19:57;18.20;99.90
24384;DHT22;12504;52.870;8.798;2023-05-10T15:22:22;18.40;99.90
24384;DHT22;12504;52.870;8.798;2023-05-10T15:24:48;18.20;99.90
24384;DHT22;12504;52.870;8.798;2023-05-10T15:27:13;17.70;99.90
24384;DHT22;12504;52.870;8.798;2023-05-10T15:29:39;17.70;99.90
24384;DHT22;12504;52.870;8.798;2023-05-10T15:32:05;17.50;99.90
24384;DHT22;12504;52.870;8.798;2023-05-10T15:34:30;17.20;99.90
24384;DHT22;12504;52.870;8.798;2023-05-10T15:36:56;17.00;99.90
24384;DHT22;12504;52.870;8.798;2023-05-10T15:39:22;16.70;99.90
24384;DHT22;12504;52.870;8.798;2023-05-10T15:41:47;16.70;99.90
24384;DHT22;12504;52.870;8.798;2023-05-10T15:44:14;16.70;99.90
24384;DHT22;12504;52.870;8.798;2023-05-10T15:46:39;16.80;99.90
24384;DHT22;12504;52.870;8.798;2023-05-10T15:49:05;16.90;99.90
24384;DHT22;12504;52.870;8.798;2023-05-10T15:51:31;16.90;99.90
24384;DHT22;12504;52.870;8.798;2023-05-10T15:53:58;16.90;99.90
24384;DHT22;12504;52.870;8.798;2023-05-10T15:56:23;16.90;99.90
24384;DHT22;12504;52.870;8.798;2023-05-10T15:58:49;17.10;99.90
24384;DHT22;12504;52.870;8.798;2023-05-10T16:01:15;17.10;99.90